createdAt,value
2022-09-17T00:00:28.000Z,162.94
2022-09-17T00:01:12.780Z,136.47
2022-09-17T00:01:58.715Z,189.06
2022-09-17T00:02:42.704Z,208.70
2022-09-17T00:03:28.561Z,208.70
2022-09-17T00:04:13.112Z,208.70
2022-09-17T00:04:58.163Z,208.70
2022-09-17T00:05:43.628Z,208.70
2022-09-17T00:06:28.274Z,29.44
2022-09-17T00:07:13.431Z,28.84
2022-09-17T00:07:58.495Z,27.43
2022-09-17T00:08:43.441Z,31.25
2022-09-17T00:09:28.303Z,41.43
2022-09-17T00:10:13.659Z,52.55
2022-09-17T00:10:58.420Z,50.02
2022-09-17T00:11:43.595Z,51.72
2022-09-17T00:12:28.673Z,37.07
2022-09-17T00:13:13.576Z,41.37
2022-09-17T00:13:58.677Z,18.03
2022-09-17T00:14:43.584Z,18.03
2022-09-17T00:15:28.859Z,18.03
2022-09-17T00:16:14.162Z,92.11
2022-09-17T00:17:01.781Z,176.07
2022-09-17T00:17:43.974Z,176.07
2022-09-17T00:18:29.176Z,176.07
2022-09-17T00:19:14.131Z,176.07
2022-09-17T00:19:59.049Z,176.07
2022-09-17T00:20:44.145Z,176.07
2022-09-17T00:21:29.102Z,176.07
2022-09-17T00:22:14.150Z,176.07
2022-09-17T00:22:58.831Z,176.07
2022-09-17T00:23:44.088Z,176.07
2022-09-17T00:24:30.358Z,176.07
2022-09-17T00:25:16.218Z,176.07
2022-09-17T00:25:59.345Z,68.10
2022-09-17T00:26:44.625Z,68.10
2022-09-17T00:27:29.448Z,316.07
2022-09-17T00:28:15.016Z,311.22
2022-09-17T00:28:59.378Z,292.94
2022-09-17T00:29:44.427Z,310.44
2022-09-17T00:30:29.774Z,321.56
2022-09-17T00:31:14.665Z,317.61
2022-09-17T00:31:59.370Z,296.47
2022-09-17T00:32:46.169Z,296.47
2022-09-17T00:33:30.922Z,171.87
2022-09-17T00:34:14.953Z,171.87
2022-09-17T00:35:00.222Z,171.87
2022-09-17T00:35:45.781Z,171.87
2022-09-17T00:36:30.188Z,171.87
2022-09-17T00:37:14.976Z,171.87
2022-09-17T00:38:00.035Z,70.14
2022-09-17T00:38:46.423Z,70.14
2022-09-17T00:39:30.757Z,70.14
2022-09-17T00:40:15.255Z,293.45
2022-09-17T00:41:00.695Z,293.45
2022-09-17T00:41:45.521Z,293.45
2022-09-17T00:42:30.772Z,78.21
2022-09-17T00:43:15.318Z,278.11
2022-09-17T00:44:00.541Z,261.10
2022-09-17T00:44:45.327Z,218.08
2022-09-17T00:45:30.906Z,291.14
2022-09-17T00:46:15.486Z,295.00
2022-09-17T00:47:00.408Z,295.00
2022-09-17T00:47:45.572Z,158.31
2022-09-17T00:48:30.627Z,158.31
2022-09-17T00:49:15.671Z,116.08
2022-09-17T00:50:00.542Z,116.08
2022-09-17T00:50:45.575Z,141.77
2022-09-17T00:51:30.733Z,140.94
2022-09-17T00:52:16.309Z,159.59
2022-09-17T00:53:00.773Z,150.45
2022-09-17T00:53:45.715Z,279.08
2022-09-17T00:54:31.073Z,143.22
2022-09-17T00:55:16.027Z,148.06
2022-09-17T00:56:01.077Z,159.86
2022-09-17T00:56:45.932Z,159.86
2022-09-17T00:57:31.142Z,181.48
2022-09-17T00:58:15.939Z,181.48
2022-09-17T00:59:00.888Z,176.07
2022-09-17T00:59:46.259Z,170.97
2022-09-17T01:00:31.246Z,141.34
2022-09-17T01:01:16.635Z,141.34
2022-09-17T01:02:01.243Z,192.94
2022-09-17T01:02:46.173Z,195.02
2022-09-17T01:03:31.329Z,182.74
2022-09-17T01:04:16.188Z,179.54
2022-09-17T01:05:01.545Z,183.79
2022-09-17T01:05:46.410Z,183.79
2022-09-17T01:06:31.971Z,191.52
2022-09-17T01:07:17.125Z,191.52
2022-09-17T01:08:02.014Z,191.52
2022-09-17T01:08:46.939Z,201.39
2022-09-17T01:09:32.311Z,201.39
2022-09-17T01:10:16.847Z,306.09
2022-09-17T01:11:04.045Z,306.09
2022-09-17T01:11:47.738Z,306.09
2022-09-17T01:12:32.978Z,306.09
2022-09-17T01:13:17.679Z,306.09
2022-09-17T01:14:02.531Z,306.09
2022-09-17T01:14:47.690Z,306.09
2022-09-17T01:15:32.460Z,158.05
2022-09-17T01:16:17.636Z,158.05
2022-09-17T01:17:02.676Z,158.05
2022-09-17T01:17:47.609Z,158.05
2022-09-17T01:18:33.384Z,158.05
2022-09-17T01:19:17.621Z,158.05
2022-09-17T01:20:02.777Z,158.05
2022-09-17T01:20:47.778Z,158.05
2022-09-17T01:21:33.196Z,158.05
2022-09-17T01:22:18.101Z,158.05
2022-09-17T01:23:02.800Z,158.05
2022-09-17T01:23:47.646Z,158.05
2022-09-17T01:24:33.325Z,158.05
2022-09-17T01:25:18.017Z,152.84
2022-09-17T01:26:03.020Z,152.84
2022-09-17T01:26:48.083Z,152.84
2022-09-17T01:27:33.652Z,152.84
2022-09-17T01:28:18.190Z,152.84
2022-09-17T01:29:03.146Z,152.84
2022-09-17T01:29:50.050Z,152.84
2022-09-17T01:30:33.186Z,152.84
2022-09-17T01:31:18.283Z,152.84
2022-09-17T01:32:03.478Z,152.84
2022-09-17T01:32:48.553Z,152.84
2022-09-17T01:33:33.692Z,152.84
2022-09-17T01:34:18.543Z,152.84
2022-09-17T01:35:03.409Z,152.84
2022-09-17T01:35:48.353Z,152.84
2022-09-17T01:36:33.519Z,152.84
2022-09-17T01:37:18.768Z,152.84
2022-09-17T01:38:03.217Z,197.57
2022-09-17T01:38:48.921Z,197.57
2022-09-17T01:39:33.732Z,197.57
2022-09-17T01:40:18.457Z,43.12
2022-09-17T01:41:05.993Z,43.12
2022-09-17T01:41:48.896Z,43.12
2022-09-17T01:42:34.176Z,43.12
2022-09-17T01:43:19.426Z,43.12
2022-09-17T01:44:03.976Z,43.12
2022-09-17T01:44:49.023Z,43.12
2022-09-17T01:45:33.878Z,43.12
2022-09-17T01:46:19.603Z,43.12
2022-09-17T01:47:04.496Z,43.12
2022-09-17T01:47:49.356Z,43.12
2022-09-17T01:48:34.616Z,43.12
2022-09-17T01:49:19.571Z,43.12
2022-09-17T01:50:04.738Z,43.12
2022-09-17T01:50:49.276Z,212.37
2022-09-17T01:51:34.620Z,271.72
2022-09-17T01:52:19.289Z,302.74
2022-09-17T01:53:04.444Z,294.23
2022-09-17T01:53:49.608Z,308.23
2022-09-17T01:54:37.092Z,308.23
2022-09-17T01:55:19.924Z,308.23
2022-09-17T01:56:04.566Z,29.11
2022-09-17T01:56:49.721Z,22.26
2022-09-17T01:57:36.668Z,24.43
2022-09-17T01:58:21.070Z,24.43
2022-09-17T01:59:05.939Z,24.43
2022-09-17T01:59:50.027Z,126.90
2022-09-17T02:00:34.932Z,126.90
2022-09-17T02:01:20.319Z,126.90
2022-09-17T02:02:05.837Z,126.90
2022-09-17T02:02:50.277Z,126.90
2022-09-17T02:03:35.341Z,126.90
2022-09-17T02:04:20.567Z,126.90
2022-09-17T02:05:05.909Z,126.90
2022-09-17T02:05:50.722Z,126.90
2022-09-17T02:06:35.472Z,126.90
2022-09-17T02:07:20.719Z,126.90
2022-09-17T02:08:05.467Z,126.90
2022-09-17T02:08:50.626Z,126.90
2022-09-17T02:09:35.478Z,126.90
2022-09-17T02:10:20.862Z,126.90
2022-09-17T02:11:05.785Z,126.90
2022-09-17T02:11:51.071Z,126.90
2022-09-17T02:12:36.010Z,126.90
2022-09-17T02:13:20.742Z,126.90
2022-09-17T02:14:05.916Z,126.90
2022-09-17T02:14:51.206Z,126.90
2022-09-17T02:15:35.933Z,126.90
2022-09-17T02:16:20.813Z,126.90
2022-09-17T02:17:05.856Z,126.90
2022-09-17T02:17:50.890Z,126.90
2022-09-17T02:18:36.055Z,126.90
2022-09-17T02:19:21.213Z,126.90
2022-09-17T02:20:06.376Z,126.90
2022-09-17T02:20:51.567Z,126.90
2022-09-17T02:21:36.385Z,126.90
2022-09-17T02:22:21.238Z,126.90
2022-09-17T02:23:06.406Z,126.90
2022-09-17T02:23:51.835Z,126.90
2022-09-17T02:24:36.509Z,126.90
2022-09-17T02:25:21.566Z,126.90
2022-09-17T02:26:06.629Z,126.90
2022-09-17T02:26:51.602Z,126.90
2022-09-17T02:27:36.728Z,126.90
2022-09-17T02:28:21.800Z,126.90
2022-09-17T02:29:06.534Z,126.90
2022-09-17T02:29:52.004Z,126.90
2022-09-17T02:30:36.977Z,126.90
2022-09-17T02:31:22.894Z,126.90
2022-09-17T02:32:08.047Z,126.90
2022-09-17T02:32:52.949Z,126.90
2022-09-17T02:33:38.312Z,126.90
2022-09-17T02:34:22.029Z,126.90
2022-09-17T02:35:07.809Z,126.90
2022-09-17T02:35:52.051Z,126.90
2022-09-17T02:36:36.991Z,126.90
2022-09-17T02:37:22.053Z,126.90
2022-09-17T02:38:07.139Z,126.90
2022-09-17T02:38:51.963Z,15.21
2022-09-17T02:39:37.321Z,15.21
2022-09-17T02:40:22.352Z,15.21
2022-09-17T02:41:07.747Z,15.21
2022-09-17T02:41:52.507Z,15.21
2022-09-17T02:42:37.338Z,15.21
2022-09-17T02:43:22.404Z,15.21
2022-09-17T02:44:07.663Z,15.21
2022-09-17T02:44:52.924Z,15.21
2022-09-17T02:45:38.092Z,15.21
2022-09-17T02:46:23.002Z,15.21
2022-09-17T02:47:07.955Z,15.21
2022-09-17T02:47:53.075Z,15.21
2022-09-17T02:48:38.205Z,15.21
2022-09-17T02:49:22.904Z,15.21
2022-09-17T02:50:08.116Z,15.21
2022-09-17T02:50:52.971Z,15.21
2022-09-17T02:51:38.107Z,15.21
2022-09-17T02:52:23.180Z,15.21
2022-09-17T02:53:08.240Z,15.21
2022-09-17T02:53:53.446Z,15.21
2022-09-17T02:54:38.582Z,15.21
2022-09-17T02:55:23.522Z,15.21
2022-09-17T02:56:08.509Z,15.21
2022-09-17T02:56:53.528Z,15.21
2022-09-17T02:57:38.577Z,15.21
2022-09-17T02:58:23.630Z,15.21
2022-09-17T02:59:08.690Z,15.21
2022-09-17T02:59:53.747Z,15.21
2022-09-17T03:00:38.980Z,15.21
2022-09-17T03:01:24.215Z,15.21
2022-09-17T03:02:08.823Z,15.21
2022-09-17T03:02:53.896Z,15.21
2022-09-17T03:03:38.514Z,274.92
2022-09-17T03:04:23.913Z,274.92
2022-09-17T03:05:08.935Z,274.92
2022-09-17T03:05:53.907Z,274.92
2022-09-17T03:06:39.153Z,274.92
2022-09-17T03:07:24.302Z,274.92
2022-09-17T03:08:09.276Z,274.92
2022-09-17T03:08:54.011Z,274.92
2022-09-17T03:09:38.967Z,274.92
2022-09-17T03:10:24.622Z,274.92
2022-09-17T03:11:09.288Z,274.92
2022-09-17T03:11:54.483Z,274.92
2022-09-17T03:12:39.598Z,274.92
2022-09-17T03:13:24.659Z,274.92
2022-09-17T03:14:09.612Z,274.92
2022-09-17T03:14:54.667Z,274.92
2022-09-17T03:15:39.625Z,274.92
2022-09-17T03:16:25.114Z,274.92
2022-09-17T03:17:09.732Z,274.92
2022-09-17T03:17:54.819Z,274.92
2022-09-17T03:18:39.955Z,274.92
2022-09-17T03:19:24.875Z,274.92
2022-09-17T03:20:10.065Z,274.92
2022-09-17T03:20:54.932Z,274.92
2022-09-17T03:21:39.872Z,274.92
2022-09-17T03:22:25.026Z,274.92
2022-09-17T03:23:10.207Z,274.92
2022-09-17T03:23:55.642Z,274.92
2022-09-17T03:24:41.442Z,274.92
2022-09-17T03:25:25.461Z,274.92
2022-09-17T03:26:10.516Z,274.92
2022-09-17T03:26:55.568Z,274.92
2022-09-17T03:27:40.523Z,274.92
2022-09-17T03:28:25.483Z,274.92
2022-09-17T03:29:10.636Z,274.92
2022-09-17T03:29:55.693Z,274.92
2022-09-17T03:30:40.545Z,274.92
2022-09-17T03:31:25.574Z,274.92
2022-09-17T03:32:10.779Z,274.92
2022-09-17T03:32:56.020Z,274.92
2022-09-17T03:33:40.880Z,274.92
2022-09-17T03:34:26.275Z,274.92
2022-09-17T03:35:11.199Z,274.92
2022-09-17T03:35:55.955Z,274.92
2022-09-17T03:36:41.432Z,274.92
2022-09-17T03:37:28.890Z,274.92
2022-09-17T03:38:11.529Z,274.92
2022-09-17T03:38:56.460Z,274.92
2022-09-17T03:39:41.219Z,274.92
2022-09-17T03:40:26.618Z,274.92
2022-09-17T03:41:11.444Z,274.92
2022-09-17T03:41:59.225Z,274.92
2022-09-17T03:42:42.377Z,274.92
2022-09-17T03:43:27.429Z,274.92
2022-09-17T03:44:11.611Z,274.92
2022-09-17T03:44:56.324Z,274.92
2022-09-17T03:45:41.733Z,274.92
2022-09-17T03:46:27.138Z,274.92
2022-09-17T03:47:11.890Z,274.92
2022-09-17T03:47:56.774Z,274.92
2022-09-17T03:48:41.819Z,274.92
2022-09-17T03:49:27.135Z,274.92
2022-09-17T03:50:12.198Z,274.92
2022-09-17T03:50:57.082Z,274.92
2022-09-17T03:51:42.204Z,274.92
2022-09-17T03:52:27.490Z,274.92
2022-09-17T03:53:12.241Z,274.92
2022-09-17T03:53:57.480Z,274.92
2022-09-17T03:54:42.964Z,274.92
2022-09-17T03:55:28.245Z,274.92
2022-09-17T03:56:12.872Z,274.92
2022-09-17T03:56:57.813Z,274.92
2022-09-17T03:57:42.777Z,274.92
2022-09-17T03:58:28.403Z,274.92
2022-09-17T03:59:12.994Z,274.92
2022-09-17T03:59:58.073Z,274.92
2022-09-17T04:00:43.522Z,274.92
2022-09-17T04:01:27.787Z,23.18
2022-09-17T04:02:14.859Z,23.18
2022-09-17T04:02:58.909Z,23.18
2022-09-17T04:03:43.553Z,23.18
2022-09-17T04:04:28.405Z,23.18
2022-09-17T04:05:13.588Z,23.18
2022-09-17T04:05:58.729Z,23.18
2022-09-17T04:06:43.283Z,23.18
2022-09-17T04:07:28.038Z,25.74
2022-09-17T04:08:13.400Z,25.74
2022-09-17T04:08:58.424Z,25.74
2022-09-17T04:09:43.598Z,25.74
2022-09-17T04:10:28.951Z,25.74
2022-09-17T04:11:13.754Z,25.74
2022-09-17T04:11:59.583Z,25.74
2022-09-17T04:12:44.044Z,25.74
2022-09-17T04:13:28.865Z,25.74
2022-09-17T04:14:15.387Z,25.74
2022-09-17T04:14:58.935Z,25.74
2022-09-17T04:15:44.480Z,25.74
2022-09-17T04:16:29.416Z,25.74
2022-09-17T04:17:14.157Z,25.74
2022-09-17T04:17:58.997Z,25.74
2022-09-17T04:18:44.156Z,25.74
2022-09-17T04:19:29.246Z,25.74
2022-09-17T04:20:14.278Z,25.74
2022-09-17T04:20:59.127Z,25.74
2022-09-17T04:21:44.083Z,25.74
2022-09-17T04:22:29.546Z,25.74
2022-09-17T04:23:14.514Z,25.74
2022-09-17T04:23:59.453Z,25.74
2022-09-17T04:24:44.199Z,25.74
2022-09-17T04:25:29.558Z,25.74
2022-09-17T04:26:14.519Z,25.74
2022-09-17T04:26:59.576Z,25.74
2022-09-17T04:27:44.627Z,25.74
2022-09-17T04:28:29.902Z,25.74
2022-09-17T04:29:14.553Z,25.74
2022-09-17T04:29:59.802Z,25.74
2022-09-17T04:30:44.753Z,25.74
2022-09-17T04:31:29.933Z,25.74
2022-09-17T04:32:14.737Z,25.74
2022-09-17T04:33:00.072Z,25.74
2022-09-17T04:33:44.977Z,25.74
2022-09-17T04:34:30.090Z,25.74
2022-09-17T04:35:15.094Z,25.74
2022-09-17T04:36:00.167Z,25.74
2022-09-17T04:36:45.531Z,25.74
2022-09-17T04:37:30.689Z,25.74
2022-09-17T04:38:15.525Z,25.74
2022-09-17T04:39:01.193Z,25.74
2022-09-17T04:39:45.736Z,25.74
2022-09-17T04:40:31.303Z,25.74
2022-09-17T04:41:15.666Z,25.74
2022-09-17T04:42:01.024Z,25.74
2022-09-17T04:42:45.863Z,25.74
2022-09-17T04:43:31.127Z,25.74
2022-09-17T04:44:16.492Z,25.74
2022-09-17T04:45:01.036Z,25.74
2022-09-17T04:45:46.362Z,25.74
2022-09-17T04:46:31.648Z,25.74
2022-09-17T04:47:16.510Z,25.74
2022-09-17T04:48:01.457Z,25.74
2022-09-17T04:48:46.835Z,25.74
2022-09-17T04:49:31.477Z,25.74
2022-09-17T04:50:16.527Z,25.74
2022-09-17T04:51:02.611Z,25.74
2022-09-17T04:51:46.745Z,25.74
2022-09-17T04:52:31.711Z,25.74
2022-09-17T04:53:16.448Z,25.74
2022-09-17T04:54:01.605Z,25.74
2022-09-17T04:54:46.578Z,25.74
2022-09-17T04:55:31.719Z,25.74
2022-09-17T04:56:16.670Z,25.74
2022-09-17T04:57:02.039Z,25.74
2022-09-17T04:57:46.919Z,25.74
2022-09-17T04:58:32.258Z,25.74
2022-09-17T04:59:17.203Z,25.74
2022-09-17T05:00:01.960Z,25.74
2022-09-17T05:00:47.278Z,25.74
2022-09-17T05:01:32.081Z,25.74
2022-09-17T05:02:17.264Z,25.74
2022-09-17T05:03:02.402Z,25.74
2022-09-17T05:03:47.295Z,25.74
2022-09-17T05:04:32.930Z,25.74
2022-09-17T05:05:17.364Z,25.74
2022-09-17T05:06:03.429Z,25.74
2022-09-17T05:06:47.776Z,25.74
2022-09-17T05:07:33.030Z,25.74
2022-09-17T05:08:19.498Z,25.74
2022-09-17T05:09:03.758Z,25.74
2022-09-17T05:09:48.544Z,25.74
2022-09-17T05:10:34.085Z,25.74
2022-09-17T05:11:18.367Z,25.74
2022-09-17T05:12:03.402Z,25.74
2022-09-17T05:12:48.157Z,25.74
2022-09-17T05:13:34.346Z,25.74
2022-09-17T05:14:18.679Z,25.74
2022-09-17T05:15:04.773Z,25.74
2022-09-17T05:15:48.433Z,25.74
2022-09-17T05:16:34.004Z,25.74
2022-09-17T05:17:18.575Z,25.74
2022-09-17T05:18:03.435Z,25.74
2022-09-17T05:18:48.914Z,25.74
2022-09-17T05:19:34.398Z,25.74
2022-09-17T05:20:19.025Z,25.74
2022-09-17T05:21:03.877Z,25.74
2022-09-17T05:21:49.116Z,25.74
2022-09-17T05:22:34.299Z,25.74
2022-09-17T05:23:19.487Z,25.74
2022-09-17T05:24:04.295Z,25.74
2022-09-17T05:24:49.610Z,25.74
2022-09-17T05:25:34.075Z,25.74
2022-09-17T05:26:18.976Z,25.74
2022-09-17T05:27:04.430Z,25.74
2022-09-17T05:27:48.977Z,25.74
2022-09-17T05:28:37.176Z,25.74
2022-09-17T05:29:19.195Z,25.74
2022-09-17T05:30:04.693Z,25.74
2022-09-17T05:30:49.586Z,25.74
2022-09-17T05:31:34.377Z,25.74
2022-09-17T05:32:23.706Z,25.74
2022-09-17T05:33:04.495Z,25.74
2022-09-17T05:33:49.370Z,25.74
2022-09-17T05:34:34.713Z,25.74
2022-09-17T05:35:19.628Z,25.74
2022-09-17T05:36:04.689Z,25.74
2022-09-17T05:36:49.989Z,25.74
2022-09-17T05:37:34.428Z,25.74
2022-09-17T05:38:20.790Z,25.74
2022-09-17T05:39:04.535Z,25.74
2022-09-17T05:39:50.340Z,25.74
2022-09-17T05:40:35.255Z,25.74
2022-09-17T05:41:20.582Z,25.74
2022-09-17T05:42:05.606Z,25.74
2022-09-17T05:42:50.022Z,25.74
2022-09-17T05:43:35.674Z,25.74
2022-09-17T05:44:20.659Z,25.74
2022-09-17T05:45:06.409Z,25.74
2022-09-17T05:45:50.869Z,25.74
2022-09-17T05:46:35.316Z,25.74
2022-09-17T05:47:20.588Z,25.74
2022-09-17T05:48:05.280Z,25.74
2022-09-17T05:48:51.241Z,25.74
2022-09-17T05:49:35.717Z,25.74
2022-09-17T05:50:20.676Z,25.74
2022-09-17T05:51:06.855Z,25.74
2022-09-17T05:51:51.026Z,25.74
2022-09-17T05:52:35.771Z,25.74
2022-09-17T05:53:24.614Z,25.74
2022-09-17T05:54:05.982Z,25.74
2022-09-17T05:54:51.405Z,25.74
2022-09-17T05:55:36.134Z,25.74
2022-09-17T05:56:21.141Z,25.74
2022-09-17T05:57:05.951Z,25.74
2022-09-17T05:57:50.945Z,25.74
2022-09-17T05:58:35.987Z,25.74
2022-09-17T05:59:20.920Z,25.74
2022-09-17T06:00:06.301Z,25.74
2022-09-17T06:00:51.544Z,25.74
2022-09-17T06:01:36.479Z,25.74
2022-09-17T06:02:21.213Z,25.74
2022-09-17T06:03:06.084Z,25.74
2022-09-17T06:03:51.150Z,25.74
2022-09-17T06:04:36.453Z,25.74
2022-09-17T06:05:22.046Z,25.74
2022-09-17T06:06:06.724Z,25.74
2022-09-17T06:06:51.397Z,25.74
2022-09-17T06:07:37.677Z,25.74
2022-09-17T06:08:21.596Z,25.74
2022-09-17T06:09:06.468Z,25.74
2022-09-17T06:09:51.609Z,25.74
2022-09-17T06:10:36.956Z,25.74
2022-09-17T06:11:21.952Z,25.74
2022-09-17T06:12:07.790Z,25.74
2022-09-17T06:12:53.057Z,25.74
2022-09-17T06:13:37.226Z,25.74
2022-09-17T06:14:21.955Z,25.74
2022-09-17T06:15:06.690Z,25.74
2022-09-17T06:15:52.044Z,25.74
2022-09-17T06:16:36.965Z,25.74
2022-09-17T06:17:22.284Z,25.74
2022-09-17T06:18:07.440Z,25.74
2022-09-17T06:18:52.058Z,25.74
2022-09-17T06:19:37.151Z,25.74
2022-09-17T06:20:22.284Z,25.74
2022-09-17T06:21:07.137Z,25.74
2022-09-17T06:21:52.343Z,25.74
2022-09-17T06:22:37.192Z,25.74
2022-09-17T06:23:22.210Z,25.74
2022-09-17T06:24:08.542Z,25.74
2022-09-17T06:24:52.417Z,25.74
2022-09-17T06:25:37.680Z,25.74
2022-09-17T06:26:23.865Z,25.74
2022-09-17T06:27:08.079Z,25.74
2022-09-17T06:27:52.853Z,25.74
2022-09-17T06:28:41.457Z,25.74
2022-09-17T06:29:22.875Z,25.74
2022-09-17T06:30:08.138Z,25.74
2022-09-17T06:30:53.625Z,25.74
2022-09-17T06:31:38.228Z,25.74
2022-09-17T06:32:23.196Z,25.74
2022-09-17T06:33:08.249Z,25.74
2022-09-17T06:33:54.157Z,25.74
2022-09-17T06:34:38.718Z,25.74
2022-09-17T06:35:23.406Z,25.74
2022-09-17T06:36:13.132Z,25.74
2022-09-17T06:36:53.700Z,25.74
2022-09-17T06:37:38.521Z,25.74
2022-09-17T06:38:23.880Z,25.74
2022-09-17T06:39:08.737Z,25.74
2022-09-17T06:39:54.711Z,25.74
2022-09-17T06:40:38.867Z,25.74
2022-09-17T06:41:23.973Z,25.74
2022-09-17T06:42:08.660Z,25.74
2022-09-17T06:42:54.298Z,25.74
2022-09-17T06:43:39.445Z,25.74
2022-09-17T06:44:24.723Z,25.74
2022-09-17T06:45:12.125Z,25.74
2022-09-17T06:45:54.117Z,25.74
2022-09-17T06:46:39.158Z,25.74
2022-09-17T06:47:24.221Z,25.74
2022-09-17T06:48:09.710Z,25.74
2022-09-17T06:48:54.485Z,25.74
2022-09-17T06:49:39.683Z,25.74
2022-09-17T06:50:24.651Z,25.74
2022-09-17T06:51:09.624Z,25.74
2022-09-17T06:51:54.239Z,25.74
2022-09-17T06:52:39.710Z,25.74
2022-09-17T06:53:24.837Z,369.65
2022-09-17T06:54:10.044Z,369.65
2022-09-17T06:54:54.718Z,369.65
2022-09-17T06:55:39.740Z,369.65
2022-09-17T06:56:24.732Z,369.65
2022-09-17T06:57:09.889Z,369.65
2022-09-17T06:57:54.878Z,369.65
2022-09-17T06:58:40.192Z,369.65
2022-09-17T06:59:25.634Z,369.65
2022-09-17T07:00:11.441Z,369.65
2022-09-17T07:00:55.426Z,369.65
2022-09-17T07:01:39.807Z,369.65
2022-09-17T07:02:26.661Z,369.65
2022-09-17T07:03:10.703Z,369.65
2022-09-17T07:03:56.005Z,369.65
2022-09-17T07:04:40.405Z,369.65
2022-09-17T07:05:26.912Z,369.65
2022-09-17T07:06:11.181Z,369.65
2022-09-17T07:06:56.748Z,369.65
2022-09-17T07:07:40.446Z,369.65
2022-09-17T07:08:26.589Z,369.65
2022-09-17T07:09:11.131Z,377.23
2022-09-17T07:09:57.200Z,377.23
2022-09-17T07:10:41.464Z,377.23
2022-09-17T07:11:25.621Z,377.23
2022-09-17T07:12:10.763Z,377.23
2022-09-17T07:12:55.874Z,377.23
2022-09-17T07:13:41.445Z,377.23
2022-09-17T07:14:26.387Z,377.23
2022-09-17T07:15:11.423Z,377.23
2022-09-17T07:15:55.911Z,377.23
2022-09-17T07:16:40.889Z,374.27
2022-09-17T07:17:26.419Z,368.39
2022-09-17T07:18:11.619Z,368.39
2022-09-17T07:18:56.997Z,368.39
2022-09-17T07:19:41.375Z,368.39
2022-09-17T07:20:26.512Z,393.34
2022-09-17T07:21:11.357Z,396.09
2022-09-17T07:21:57.141Z,396.09
2022-09-17T07:22:41.331Z,388.34
2022-09-17T07:23:27.300Z,388.34
2022-09-17T07:24:11.700Z,388.34
2022-09-17T07:24:56.843Z,388.34
2022-09-17T07:25:42.125Z,388.34
2022-09-17T07:26:27.830Z,388.34
2022-09-17T07:27:14.534Z,388.34
2022-09-17T07:27:56.452Z,170.72
2022-09-17T07:28:42.235Z,386.79
2022-09-17T07:29:26.595Z,402.41
2022-09-17T07:30:11.644Z,397.72
2022-09-17T07:30:56.845Z,402.41
2022-09-17T07:31:41.832Z,398.24
2022-09-17T07:32:27.348Z,389.84
2022-09-17T07:33:11.962Z,403.21
2022-09-17T07:33:57.322Z,394.87
2022-09-17T07:34:42.066Z,393.01
2022-09-17T07:35:27.257Z,389.54
2022-09-17T07:36:12.481Z,395.02
2022-09-17T07:36:56.914Z,374.91
2022-09-17T07:37:42.702Z,374.91
2022-09-17T07:38:27.245Z,389.54
2022-09-17T07:39:14.177Z,389.54
2022-09-17T07:40:00.311Z,389.54
2022-09-17T07:40:44.061Z,389.54
2022-09-17T07:41:29.000Z,389.54
2022-09-17T07:42:12.512Z,372.12
2022-09-17T07:42:58.684Z,393.58
2022-09-17T07:43:42.465Z,401.04
2022-09-17T07:44:28.560Z,386.11
2022-09-17T07:45:12.634Z,272.03
2022-09-17T07:45:58.143Z,280.91
2022-09-17T07:46:42.707Z,300.38
2022-09-17T07:47:27.945Z,300.38
2022-09-17T07:48:13.071Z,313.07
2022-09-17T07:48:58.026Z,313.07
2022-09-17T07:49:43.101Z,314.50
2022-09-17T07:50:28.552Z,321.25
2022-09-17T07:51:13.423Z,341.58
2022-09-17T07:51:58.421Z,327.05
2022-09-17T07:52:43.332Z,327.05
2022-09-17T07:53:28.769Z,308.13
2022-09-17T07:54:13.522Z,321.25
2022-09-17T07:54:58.472Z,318.43
2022-09-17T07:55:44.015Z,316.86
2022-09-17T07:56:28.703Z,315.85
2022-09-17T07:57:17.050Z,303.19
2022-09-17T07:57:59.552Z,300.91
2022-09-17T07:58:46.548Z,286.18
2022-09-17T07:59:29.899Z,283.37
2022-09-17T08:00:16.129Z,299.63
2022-09-17T08:00:58.970Z,302.72
2022-09-17T08:01:44.021Z,298.63
2022-09-17T08:02:29.728Z,292.55
2022-09-17T08:03:15.504Z,260.92
2022-09-17T08:04:05.826Z,291.79
2022-09-17T08:04:49.497Z,272.55
2022-09-17T08:05:33.079Z,279.63
2022-09-17T08:06:17.212Z,271.01
2022-09-17T08:06:59.904Z,271.01
2022-09-17T08:07:44.664Z,295.77
2022-09-17T08:08:30.301Z,302.72
2022-09-17T08:09:14.684Z,309.80
2022-09-17T08:09:59.842Z,298.63
2022-09-17T08:10:44.738Z,295.59
2022-09-17T08:11:54.968Z,308.13
2022-09-17T08:12:15.183Z,297.87
2022-09-17T08:13:00.087Z,273.13
2022-09-17T08:13:44.847Z,336.37
2022-09-17T08:14:30.203Z,336.37
2022-09-17T08:15:16.295Z,334.95
2022-09-17T08:16:00.592Z,291.79
2022-09-17T08:16:45.012Z,239.73
2022-09-17T08:17:31.811Z,285.43
2022-09-17T08:18:15.155Z,259.69
2022-09-17T08:19:00.403Z,233.35
2022-09-17T08:19:45.752Z,270.30
2022-09-17T08:20:30.313Z,298.63
2022-09-17T08:21:15.454Z,289.17
2022-09-17T08:22:00.849Z,289.17
2022-09-17T08:22:50.299Z,192.12
2022-09-17T08:23:30.701Z,385.53
2022-09-17T08:24:15.762Z,371.19
2022-09-17T08:25:00.405Z,363.73
2022-09-17T08:25:45.801Z,365.60
2022-09-17T08:26:31.057Z,345.19
2022-09-17T08:27:15.814Z,338.55
2022-09-17T08:28:01.264Z,327.36
2022-09-17T08:28:46.011Z,340.41
2022-09-17T08:29:35.018Z,342.28
2022-09-17T08:30:16.077Z,348.81
2022-09-17T08:31:01.260Z,350.67
2022-09-17T08:31:46.108Z,352.70
2022-09-17T08:32:33.120Z,354.40
2022-09-17T08:33:15.942Z,355.34
2022-09-17T08:34:01.448Z,357.20
2022-09-17T08:34:46.692Z,348.95
2022-09-17T08:35:32.374Z,349.30
2022-09-17T08:36:16.598Z,358.33
2022-09-17T08:37:01.447Z,356.45
2022-09-17T08:37:46.716Z,346.01
2022-09-17T08:38:37.703Z,357.20
2022-09-17T08:39:16.840Z,352.54
2022-09-17T08:40:01.765Z,364.66
2022-09-17T08:40:46.409Z,373.33
2022-09-17T08:41:33.153Z,378.02
2022-09-17T08:42:17.537Z,372.40
2022-09-17T08:43:01.948Z,371.46
2022-09-17T08:43:47.089Z,365.60
2022-09-17T08:44:32.937Z,363.73
2022-09-17T08:45:17.047Z,303.01
2022-09-17T08:46:02.018Z,358.13
2022-09-17T08:46:51.836Z,346.01
2022-09-17T08:47:33.268Z,350.67
2022-09-17T08:48:17.260Z,349.74
2022-09-17T08:49:03.391Z,350.67
2022-09-17T08:49:47.524Z,350.67
2022-09-17T08:50:34.022Z,355.94
2022-09-17T08:51:17.424Z,343.89
2022-09-17T08:52:02.396Z,353.06
2022-09-17T08:52:48.269Z,344.24
2022-09-17T08:53:32.959Z,328.05
2022-09-17T08:54:17.967Z,332.34
2022-09-17T08:55:02.572Z,323.56
2022-09-17T08:55:47.773Z,322.03
2022-09-17T08:56:33.626Z,332.34
2022-09-17T08:57:18.205Z,306.09
2022-09-17T08:58:02.924Z,317.54
2022-09-17T08:58:48.419Z,317.54
2022-09-17T08:59:33.962Z,306.91
2022-09-17T09:00:18.056Z,302.00
2022-09-17T09:01:03.433Z,284.70
2022-09-17T09:01:48.434Z,287.84
2022-09-17T09:02:34.240Z,288.16
2022-09-17T09:03:18.393Z,305.10
2022-09-17T09:04:03.171Z,309.72
2022-09-17T09:04:48.351Z,356.27
2022-09-17T09:05:34.144Z,351.13
2022-09-17T09:06:18.415Z,351.13
2022-09-17T09:07:05.356Z,334.50
2022-09-17T09:07:48.892Z,312.58
2022-09-17T09:08:34.279Z,315.04
2022-09-17T09:09:18.873Z,305.52
2022-09-17T09:10:03.788Z,281.00
2022-09-17T09:10:49.409Z,280.78
2022-09-17T09:11:34.450Z,329.56
2022-09-17T09:12:20.073Z,322.35
2022-09-17T09:13:04.132Z,337.66
2022-09-17T09:13:49.149Z,339.81
2022-09-17T09:14:34.869Z,336.72
2022-09-17T09:15:19.553Z,325.05
2022-09-17T09:16:04.734Z,338.54
2022-09-17T09:16:49.205Z,333.09
2022-09-17T09:17:34.709Z,336.72
2022-09-17T09:18:20.656Z,336.72
2022-09-17T09:19:05.012Z,344.89
2022-09-17T09:19:50.917Z,305.86
2022-09-17T09:20:35.597Z,186.06
2022-09-17T09:21:20.894Z,174.26
2022-09-17T09:22:05.109Z,205.12
2022-09-17T09:22:50.390Z,318.57
2022-09-17T09:23:35.169Z,319.48
2022-09-17T09:24:21.067Z,322.20
2022-09-17T09:25:05.315Z,309.72
2022-09-17T09:25:50.825Z,320.38
2022-09-17T09:26:35.000Z,316.75
2022-09-17T09:27:20.281Z,311.49
2022-09-17T09:28:04.984Z,326.74
2022-09-17T09:28:50.238Z,322.20